createdAt,value
2018-11-28T00:02:11.046Z,97105.50
2018-11-28T00:04:41.037Z,97104.53
2018-11-28T00:07:26.762Z,97100.13
2018-11-28T00:09:56.670Z,97095.89
2018-11-28T00:12:26.678Z,97097.34
2018-11-28T00:14:56.586Z,97090.67
2018-11-28T00:17:26.472Z,97092.81
2018-11-28T00:19:56.382Z,97088.11
2018-11-28T00:22:26.341Z,97094.14
2018-11-28T00:24:56.254Z,97085.33
2018-11-28T00:27:26.169Z,97093.52
2018-11-28T00:29:56.074Z,97097.42
2018-11-28T00:32:25.977Z,97095.62
2018-11-28T00:34:55.889Z,97094.97
2018-11-28T00:37:25.862Z,97098.06
2018-11-28T00:39:55.701Z,97095.95
2018-11-28T00:42:31.290Z,97094.81
2018-11-28T00:45:01.184Z,97088.14
2018-11-28T00:47:31.097Z,97090.39
2018-11-28T00:50:01.053Z,97093.00
2018-11-28T00:52:30.929Z,97091.22
2018-11-28T00:55:00.829Z,97097.89
2018-11-28T00:57:30.805Z,97103.13
2018-11-28T01:00:00.777Z,97100.20
2018-11-28T01:02:30.694Z,97107.22
2018-11-28T01:05:00.601Z,97100.86
2018-11-28T01:07:30.609Z,97098.40
2018-11-28T01:10:00.541Z,97110.14
2018-11-28T01:12:30.452Z,97105.91
2018-11-28T01:15:00.355Z,97103.14
2018-11-28T01:17:30.306Z,97102.48
2018-11-28T01:20:00.249Z,97106.39
2018-11-28T01:22:30.175Z,97108.69
2018-11-28T01:25:00.087Z,97110.66
2018-11-28T01:27:30.006Z,97111.97
2018-11-28T01:29:59.978Z,97110.81
2018-11-28T01:32:29.881Z,97110.30
2018-11-28T01:34:59.776Z,97105.76
2018-11-28T01:37:29.817Z,97100.86
2018-11-28T01:39:59.719Z,97100.85
2018-11-28T01:42:29.900Z,97105.25
2018-11-28T01:44:59.834Z,97101.69
2018-11-28T01:47:29.744Z,97101.37
2018-11-28T01:49:59.647Z,97099.88
2018-11-28T01:52:29.666Z,97096.63
2018-11-28T01:54:59.565Z,97093.34
2018-11-28T01:57:29.482Z,97093.02
2018-11-28T01:59:59.392Z,97090.09
2018-11-28T02:02:29.297Z,97090.57
2018-11-28T04:33:40.772Z,97098.66
2018-11-28T04:36:10.656Z,97097.89
2018-11-28T04:38:40.575Z,97103.59
2018-11-28T04:41:10.509Z,97100.84
2018-11-28T04:43:40.431Z,97095.95
2018-11-28T04:46:10.352Z,97094.98
2018-11-28T04:48:40.254Z,97099.06
2018-11-28T04:51:10.195Z,97089.42
2018-11-28T04:53:40.095Z,97091.09
2018-11-28T04:56:10.013Z,97095.63
2018-11-28T04:58:39.917Z,97094.48
2018-11-28T05:01:10.469Z,97095.63
2018-11-28T05:03:40.621Z,97103.61
2018-11-28T05:06:10.809Z,97098.91
2018-11-28T05:08:40.700Z,97098.56
2018-11-28T05:11:10.625Z,97097.42
2018-11-28T05:13:41.023Z,97098.41
2018-11-28T05:16:11.009Z,97106.06
2018-11-28T05:18:41.032Z,97098.08
2018-11-28T05:21:11.021Z,97102.00
2018-11-28T05:23:40.926Z,97097.26
2018-11-28T05:26:10.856Z,97093.70
2018-11-28T05:28:40.858Z,97100.03
2018-11-28T05:31:10.893Z,97103.13
2018-11-28T05:33:40.822Z,97105.42
2018-11-28T05:36:16.849Z,97100.69
2018-11-28T05:38:46.857Z,97099.23
2018-11-28T05:41:16.864Z,97102.63
2018-11-28T05:43:46.924Z,97103.92
2018-11-28T05:46:16.909Z,97102.80
2018-11-28T05:48:46.831Z,97107.04
2018-11-28T05:51:16.831Z,97106.06
2018-11-28T05:53:46.721Z,97106.72
2018-11-28T05:56:16.761Z,97113.25
2018-11-28T05:58:46.672Z,97107.05
2018-11-28T06:01:16.632Z,97109.65
2018-11-28T06:03:46.552Z,97108.16
2018-11-28T06:06:16.662Z,97111.93
2018-11-28T06:08:46.699Z,97115.02
2018-11-28T06:11:16.598Z,97115.84
2018-11-28T06:13:46.530Z,97117.44
2018-11-28T06:16:16.465Z,97126.06
2018-11-28T06:18:46.447Z,97130.48
2018-11-28T06:21:16.457Z,97130.13
2018-11-28T06:23:46.377Z,97133.00
2018-11-28T06:26:16.303Z,97135.16
2018-11-28T06:28:46.203Z,97136.02
2018-11-28T06:31:16.121Z,97136.66
2018-11-28T06:33:46.012Z,97140.77
2018-11-28T06:36:16.053Z,97138.95
2018-11-28T06:38:45.966Z,97136.50
2018-11-28T06:41:15.993Z,97135.03
2018-11-28T06:43:45.892Z,97135.17
2018-11-28T06:46:15.810Z,97145.44
2018-11-28T06:48:45.812Z,97140.55
2018-11-28T06:51:15.748Z,97146.59
2018-11-28T06:53:45.644Z,97154.42
2018-11-28T06:56:15.569Z,97147.09
2018-11-28T06:58:45.491Z,97146.62
2018-11-28T07:01:15.405Z,97148.44
2018-11-28T07:03:45.280Z,97151.51
2018-11-28T07:06:15.205Z,97154.00
2018-11-28T07:08:45.121Z,97163.44
2018-11-28T07:11:15.055Z,97160.84
2018-11-28T07:13:44.961Z,97168.32
2018-11-28T07:16:14.899Z,97172.70
2018-11-28T07:19:15.008Z,97170.61
2018-11-28T07:21:44.985Z,97182.14
2018-11-28T07:24:14.919Z,97185.75
2018-11-28T07:26:44.868Z,97189.50
2018-11-28T07:29:16.574Z,97187.72
2018-11-28T07:31:46.513Z,97195.69
2018-11-28T07:34:16.404Z,97192.10
2018-11-28T07:36:46.323Z,97196.33
2018-11-28T07:39:16.221Z,97198.64
2018-11-28T07:41:46.121Z,97194.25
2018-11-28T07:44:16.028Z,97195.41
2018-11-28T07:46:45.961Z,97182.86
2018-11-28T07:49:15.858Z,97192.16
2018-11-28T07:51:45.768Z,97183.70
2018-11-28T07:54:15.744Z,97192.31
2018-11-28T07:56:45.752Z,97186.11
2018-11-28T07:59:15.645Z,97200.65
2018-11-28T08:01:45.564Z,97195.75
2018-11-28T08:04:15.504Z,97190.70
2018-11-28T08:06:45.547Z,97185.33
2018-11-28T08:09:15.479Z,97192.47
2018-11-28T08:11:45.386Z,97199.97
2018-11-28T08:14:17.024Z,97196.87
2018-11-28T08:16:48.151Z,97198.02
2018-11-28T08:19:17.021Z,97192.31
2018-11-28T08:21:47.160Z,97203.73
2018-11-28T08:24:17.089Z,97203.73
2018-11-28T08:26:46.994Z,97209.44
2018-11-28T08:29:17.188Z,97216.81
2018-11-28T08:31:46.996Z,97211.13
2018-11-28T08:34:16.925Z,97214.37
2018-11-28T08:36:46.804Z,97211.13
2018-11-28T08:39:16.741Z,97211.92
2018-11-28T08:41:46.642Z,97212.09
2018-11-28T08:44:16.562Z,97210.47
2018-11-28T08:46:46.461Z,97208.16
2018-11-28T08:49:16.377Z,97208.99
2018-11-28T08:51:46.264Z,97214.38
2018-11-28T08:54:16.182Z,97214.05
2018-11-28T08:56:46.073Z,97213.58
2018-11-28T08:59:15.978Z,97215.22
2018-11-28T09:01:45.862Z,97216.20
2018-11-28T09:04:15.770Z,97218.66
2018-11-28T09:06:45.660Z,97219.97
2018-11-28T09:09:15.608Z,97223.70
2018-11-28T09:11:45.477Z,97234.48
2018-11-28T09:14:15.376Z,97235.45
2018-11-28T09:16:45.270Z,97243.79
2018-11-28T09:19:15.176Z,97241.66
2018-11-28T09:21:45.080Z,97241.17
2018-11-28T09:24:14.994Z,97247.20
2018-11-28T09:26:44.885Z,97240.86
2018-11-28T09:29:16.864Z,97248.02
2018-11-28T09:31:46.758Z,97256.02
2018-11-28T09:34:16.691Z,97260.77
2018-11-28T09:36:46.593Z,97264.02
2018-11-28T09:39:16.510Z,97258.00
2018-11-28T09:41:46.451Z,97251.31
2018-11-28T09:44:16.359Z,97250.80
2018-11-28T09:46:46.278Z,97248.02
2018-11-28T09:49:16.188Z,97248.34
2018-11-28T09:51:46.084Z,97257.16
2018-11-28T09:54:16.000Z,97253.41
2018-11-28T09:56:48.744Z,97255.22
2018-11-28T09:59:18.656Z,97253.23
2018-11-28T10:01:48.559Z,97247.84
2018-11-28T10:04:18.742Z,97241.80
2018-11-28T10:06:48.893Z,97242.59
2018-11-28T10:09:18.846Z,97240.48
2018-11-28T10:11:48.743Z,97239.16
2018-11-28T10:14:18.665Z,97241.41
2018-11-28T10:16:49.175Z,97246.00
2018-11-28T10:19:18.497Z,97247.77
2018-11-28T10:21:48.389Z,97242.66
2018-11-28T10:24:18.320Z,97238.25
2018-11-28T10:26:48.220Z,97235.45
2018-11-28T10:29:18.910Z,97228.78
2018-11-28T10:31:49.317Z,97220.45
2018-11-28T10:34:19.222Z,97218.78
2018-11-28T10:36:49.146Z,97217.31
2018-11-28T10:39:19.053Z,97220.60
2018-11-28T10:41:49.024Z,97226.30
2018-11-28T10:44:18.922Z,97222.51
2018-11-28T10:46:48.828Z,97225.64
2018-11-28T10:49:18.739Z,97228.68
2018-11-28T10:51:50.374Z,97223.92
2018-11-28T10:54:18.630Z,97215.75
2018-11-28T10:56:48.553Z,97214.41
2018-11-28T10:59:18.444Z,97212.27
2018-11-28T11:01:52.294Z,97213.39
2018-11-28T11:05:24.810Z,97209.61
2018-11-28T11:08:00.042Z,97211.14
2018-11-28T11:10:35.305Z,97212.72
2018-11-28T11:13:10.496Z,97207.74
2018-11-28T11:15:40.410Z,97212.16
2018-11-28T11:18:12.384Z,97210.22
2018-11-28T11:20:42.361Z,97203.73
2018-11-28T11:23:12.256Z,97202.48
2018-11-28T11:25:42.178Z,97201.34
2018-11-28T11:28:12.101Z,97196.77
2018-11-28T11:30:42.021Z,97190.50
2018-11-28T11:33:11.951Z,97197.39
2018-11-28T11:35:41.864Z,97199.29
2018-11-28T11:38:11.838Z,97200.11
2018-11-28T11:40:41.696Z,97201.25
2018-11-28T11:43:11.869Z,97197.50
2018-11-28T11:45:41.760Z,97197.60
2018-11-28T11:48:11.682Z,97187.50
2018-11-28T11:50:42.432Z,97180.98
2018-11-28T11:53:12.433Z,97181.77
2018-11-28T11:55:42.274Z,97178.48
2018-11-28T11:58:12.216Z,97173.78
2018-11-28T12:00:44.248Z,97173.69
2018-11-28T12:03:15.302Z,97174.69
2018-11-28T12:05:49.721Z,97170.72
2018-11-28T12:08:19.629Z,97173.66
2018-11-28T12:10:49.570Z,97179.11
2018-11-28T12:13:19.506Z,97170.59
2018-11-28T12:15:49.404Z,97182.97
2018-11-28T12:18:19.345Z,97181.61
2018-11-28T12:20:55.409Z,97180.86
2018-11-28T12:23:25.355Z,97171.91
2018-11-28T12:25:55.289Z,97171.64
2018-11-28T12:28:25.192Z,97176.80
2018-11-28T12:30:55.596Z,97175.14
2018-11-28T12:33:25.521Z,97173.17
2018-11-28T12:35:55.448Z,97169.89
2018-11-28T12:38:25.377Z,97164.61
2018-11-28T12:40:55.521Z,97169.71
2018-11-28T12:43:25.450Z,97174.65
2018-11-28T12:45:55.356Z,97173.08
2018-11-28T12:48:25.252Z,97171.94
2018-11-28T12:50:55.161Z,97172.52
2018-11-28T12:53:25.056Z,97174.56
2018-11-28T12:55:54.954Z,97176.36
2018-11-28T12:58:24.859Z,97181.20
2018-11-28T13:00:54.740Z,97181.12
2018-11-28T13:03:24.654Z,97178.50
2018-11-28T13:05:54.548Z,97177.94
2018-11-28T13:08:24.448Z,97175.66
2018-11-28T13:10:54.357Z,97169.02
2018-11-28T13:13:24.245Z,97169.41
2018-11-28T13:15:54.186Z,97166.23
2018-11-28T13:18:24.076Z,97167.66
2018-11-28T13:20:53.972Z,97164.25
2018-11-28T13:23:23.881Z,97161.14
2018-11-28T13:25:53.785Z,97162.63
2018-11-28T13:28:23.668Z,97164.70
2018-11-28T13:30:53.571Z,97169.71
2018-11-28T13:33:23.456Z,97163.12
2018-11-28T13:35:53.408Z,97171.20
2018-11-28T13:38:23.323Z,97171.16
2018-11-28T13:40:53.308Z,97165.97
2018-11-28T13:43:23.505Z,97162.41
2018-11-28T13:45:53.417Z,97158.75
2018-11-28T13:48:23.380Z,97152.33
2018-11-28T13:50:53.285Z,97159.05
2018-11-28T13:53:23.182Z,97159.19
2018-11-28T13:56:57.369Z,97162.90
2018-11-28T13:58:26.209Z,97153.98
2018-11-28T14:00:56.170Z,97155.77
2018-11-28T14:03:26.077Z,97153.33
2018-11-28T14:05:56.058Z,97157.26
2018-11-28T14:08:25.982Z,97152.50
2018-11-28T14:10:55.892Z,97153.59
2018-11-28T14:13:25.810Z,97148.56
2018-11-28T14:15:55.702Z,97157.44
2018-11-28T14:18:25.604Z,97151.84
2018-11-28T14:20:55.519Z,97155.25
2018-11-28T14:23:25.456Z,97156.25
2018-11-28T14:25:55.398Z,97163.13
2018-11-28T14:28:25.300Z,97161.33
2018-11-28T14:30:55.192Z,97158.48
2018-11-28T14:33:25.108Z,97169.85
2018-11-28T14:35:55.008Z,97169.72
2018-11-28T14:38:24.915Z,97175.19
2018-11-28T14:40:54.812Z,97173.70
2018-11-28T14:43:24.828Z,97171.25
2018-11-28T14:45:54.734Z,97161.94
2018-11-28T14:48:24.636Z,97157.65
2018-11-28T14:50:54.533Z,97167.95
2018-11-28T14:53:24.456Z,97169.09
2018-11-28T14:55:54.413Z,97170.41
2018-11-28T14:58:24.312Z,97173.03
2018-11-28T15:00:54.296Z,97174.05
2018-11-28T15:03:24.336Z,97178.23
2018-11-28T15:06:33.972Z,97172.34
2018-11-28T15:09:09.131Z,97168.56
2018-11-28T15:11:39.065Z,97165.55
2018-11-28T15:14:09.032Z,97172.38
2018-11-28T15:16:39.153Z,97170.93
2018-11-28T15:19:09.061Z,97166.39
2018-11-28T15:21:39.625Z,97174.17
2018-11-28T15:24:09.538Z,97174.39
2018-11-28T15:26:39.438Z,97166.34
2018-11-28T15:29:09.360Z,97169.73
2018-11-28T15:31:39.342Z,97170.70
2018-11-28T15:34:09.340Z,97165.80
2018-11-28T15:36:39.228Z,97165.59
2018-11-28T15:39:10.355Z,97167.39
2018-11-28T15:41:40.247Z,97157.43
2018-11-28T15:44:10.157Z,97158.12
2018-11-28T15:46:40.269Z,97152.09
2018-11-28T15:49:10.188Z,97149.64
2018-11-28T15:51:40.304Z,97155.53
2018-11-28T15:54:10.249Z,97153.27
2018-11-28T15:56:40.240Z,97152.05
2018-11-28T15:59:10.183Z,97164.30
2018-11-28T16:01:40.156Z,97162.75
2018-11-28T16:04:10.090Z,97158.33
2018-11-28T16:06:40.003Z,97154.27
2018-11-28T16:09:15.226Z,97147.19
2018-11-28T16:11:45.153Z,97154.75
2018-11-28T16:14:15.210Z,97152.30
2018-11-28T16:16:45.105Z,97149.27
2018-11-28T16:19:15.039Z,97148.61
2018-11-28T16:21:45.086Z,97149.45
2018-11-28T16:24:15.012Z,97154.86
2018-11-28T16:26:44.984Z,97160.72
2018-11-28T16:29:15.122Z,97154.69
2018-11-28T16:31:45.025Z,97153.34
2018-11-28T16:34:15.050Z,97148.31
2018-11-28T16:36:45.012Z,97151.37
2018-11-28T16:39:15.166Z,97160.92
2018-11-28T16:41:45.057Z,97160.61
2018-11-28T16:44:15.049Z,97152.80
2018-11-28T16:46:45.000Z,97158.03
2018-11-28T16:49:15.000Z,97158.31
2018-11-28T16:51:44.900Z,97144.97
2018-11-28T16:54:14.805Z,97140.25
2018-11-28T16:56:44.730Z,97145.83
2018-11-28T16:59:14.696Z,97144.31
2018-11-28T17:01:44.594Z,97135.80
2018-11-28T17:04:14.508Z,97133.84
2018-11-28T17:06:44.391Z,97136.73
2018-11-28T17:09:14.356Z,97130.15
2018-11-28T17:11:44.249Z,97134.22
2018-11-28T17:14:14.156Z,97140.69
2018-11-28T17:16:44.040Z,97138.55
2018-11-28T17:19:13.955Z,97154.58
2018-11-28T17:21:44.147Z,97157.72
2018-11-28T17:24:14.064Z,97157.88
2018-11-28T17:26:43.953Z,97160.16
2018-11-28T17:29:13.873Z,97161.64
2018-11-28T17:31:43.781Z,97157.13
2018-11-28T17:34:13.730Z,97161.19
2018-11-28T17:36:43.617Z,97163.89
2018-11-28T17:39:13.768Z,97171.20
2018-11-28T17:41:43.741Z,97168.56
2018-11-28T17:44:13.677Z,97178.89
2018-11-28T17:46:43.573Z,97183.64
2018-11-28T17:49:13.544Z,97188.25
2018-11-28T17:51:43.444Z,97186.44
2018-11-28T17:54:13.355Z,97178.63
2018-11-28T17:56:43.258Z,97180.77
2018-11-28T17:59:13.182Z,97181.93
2018-11-28T18:01:43.060Z,97187.73
2018-11-28T18:04:12.998Z,97181.50
2018-11-28T18:06:42.875Z,97186.45
2018-11-28T18:09:13.082Z,97184.58
2018-11-28T18:11:42.982Z,97181.95
2018-11-28T18:14:13.112Z,97176.23
2018-11-28T18:16:43.015Z,97181.72
2018-11-28T18:19:13.214Z,97172.72
2018-11-28T18:21:43.147Z,97167.34
2018-11-28T18:24:13.233Z,97168.83
2018-11-28T18:26:43.179Z,97175.21
2018-11-28T18:29:13.149Z,97171.12
2018-11-28T18:31:43.062Z,97179.28
2018-11-28T18:34:13.164Z,97169.69
2018-11-28T18:36:43.052Z,97174.92
2018-11-28T18:39:13.106Z,97171.02
2018-11-28T18:41:43.126Z,97177.87
2018-11-28T18:44:13.310Z,97177.02
2018-11-28T18:46:50.000Z,97167.26
2018-11-28T18:49:19.994Z,97175.11
2018-11-28T18:51:49.932Z,97172.95
2018-11-28T18:54:19.852Z,97176.91
2018-11-28T18:56:49.740Z,97177.89
2018-11-28T18:59:19.686Z,97180.80
2018-11-28T19:01:49.629Z,97185.09
2018-11-28T19:04:20.089Z,97195.20
2018-11-28T19:06:50.061Z,97195.24
2018-11-28T19:09:25.309Z,97196.50
2018-11-28T19:11:55.196Z,97191.28
2018-11-28T19:14:25.222Z,97189.20
2018-11-28T19:16:55.152Z,97189.52
2018-11-28T19:19:25.247Z,97193.10
2018-11-28T19:21:55.225Z,97185.75
2018-11-28T19:24:25.188Z,97182.48
2018-11-28T19:26:55.157Z,97184.93
2018-11-28T19:29:25.170Z,97182.13
2018-11-28T19:31:55.224Z,97184.98
2018-11-28T19:34:25.140Z,97181.57
2018-11-28T19:36:55.128Z,97180.87
2018-11-28T19:39:25.001Z,97184.97
2018-11-28T19:41:54.937Z,97188.73
2018-11-28T19:44:24.840Z,97184.48
2018-11-28T19:46:54.904Z,97195.41
2018-11-28T19:49:24.804Z,97206.55
2018-11-28T19:51:54.825Z,97206.71
2018-11-28T19:54:24.797Z,97212.08
2018-11-28T19:56:54.735Z,97214.34
2018-11-28T19:59:24.736Z,97211.23
2018-11-28T20:01:54.661Z,97209.05
2018-11-28T20:04:24.646Z,97204.40
2018-11-28T20:06:54.663Z,97198.48
2018-11-28T20:09:24.577Z,97192.89
2018-11-28T20:11:54.517Z,97199.44
2018-11-28T20:14:24.457Z,97201.88
2018-11-28T20:16:54.560Z,97206.95
2018-11-28T20:19:24.441Z,97209.37
2018-11-28T20:21:54.425Z,97210.06
2018-11-28T20:24:24.390Z,97202.20
2018-11-28T20:26:54.373Z,97198.91
2018-11-28T20:29:24.272Z,97200.77
2018-11-28T20:31:54.190Z,97201.59
2018-11-28T20:34:24.374Z,97206.48
2018-11-28T20:36:54.419Z,97203.98
2018-11-28T20:39:24.591Z,97203.00
2018-11-28T20:41:54.537Z,97208.59
2018-11-28T20:44:24.651Z,97213.30
2018-11-28T20:46:54.696Z,97213.64
2018-11-28T20:49:24.889Z,97208.39
2018-11-28T20:51:55.112Z,97209.22
2018-11-28T20:54:25.189Z,97207.44
2018-11-28T20:56:55.344Z,97204.05
2018-11-28T20:59:25.534Z,97200.56
2018-11-28T21:01:55.806Z,97202.36
2018-11-28T21:04:25.897Z,97197.13
2018-11-28T21:06:55.829Z,97199.42
2018-11-28T21:09:26.736Z,97184.00
2018-11-28T21:11:56.677Z,97191.88
2018-11-28T21:14:26.723Z,97181.77
2018-11-28T21:16:56.640Z,97177.17
2018-11-28T21:19:26.801Z,97170.28
2018-11-28T21:21:56.717Z,97169.94
2018-11-28T21:24:26.821Z,97175.88
2018-11-28T21:26:59.737Z,97181.44
2018-11-28T21:29:30.004Z,97174.33
2018-11-28T21:31:59.985Z,97171.70
2018-11-28T21:34:29.901Z,97171.34
2018-11-28T21:36:59.810Z,97169.60
2018-11-28T21:39:29.776Z,97167.98
2018-11-28T21:41:59.745Z,97157.66
2018-11-28T21:44:29.953Z,97157.66
2018-11-28T21:46:59.862Z,97151.91
2018-11-28T21:49:29.944Z,97159.16
2018-11-28T21:51:59.937Z,97157.52
2018-11-28T21:54:29.975Z,97157.53
2018-11-28T21:56:59.897Z,97150.60
2018-11-28T21:59:30.010Z,97154.36
2018-11-28T22:01:59.978Z,97152.17
2018-11-28T22:04:30.105Z,97148.35
2018-11-28T22:07:00.000Z,97157.53
2018-11-28T22:09:33.881Z,97149.48
2018-11-28T22:12:03.842Z,97156.73
2018-11-28T22:14:33.846Z,97155.47
2018-11-28T22:17:03.755Z,97159.33
2018-11-28T22:19:33.657Z,97158.87
2018-11-28T22:22:03.583Z,97163.73
2018-11-28T22:24:33.770Z,97154.70
2018-11-28T22:27:03.663Z,97150.12
2018-11-28T22:29:34.307Z,97141.95
2018-11-28T22:32:04.417Z,97142.92
2018-11-28T22:34:34.275Z,97141.30
2018-11-28T22:37:04.198Z,97135.55
2018-11-28T22:39:34.088Z,97132.59
2018-11-28T22:42:04.001Z,97126.87
2018-11-28T22:44:33.905Z,97124.22
2018-11-28T22:47:03.813Z,97122.46
2018-11-28T22:49:33.808Z,97126.59
2018-11-28T22:52:04.115Z,97116.77
2018-11-28T22:54:34.100Z,97107.13
2018-11-28T22:57:04.043Z,97111.05
2018-11-28T22:59:34.170Z,97106.98
2018-11-28T23:02:57.154Z,97100.10
2018-11-28T23:05:31.289Z,97098.83
2018-11-28T23:08:02.709Z,97106.02
2018-11-28T23:10:32.709Z,97106.77
2018-11-28T23:13:02.612Z,97109.70
2018-11-28T23:15:32.589Z,97107.73
2018-11-28T23:18:02.484Z,97103.89
2018-11-28T23:20:32.401Z,97094.55
2018-11-28T23:23:02.377Z,97092.84
2018-11-28T23:25:32.293Z,97095.80
2018-11-28T23:28:02.198Z,97090.53
2018-11-28T23:30:32.149Z,97090.22
2018-11-28T23:33:02.261Z,97092.03
2018-11-28T23:35:32.525Z,97087.56
2018-11-28T23:38:02.427Z,97090.94
2018-11-28T23:40:32.320Z,97092.84
2018-11-28T23:43:02.433Z,97093.55
2018-11-28T23:45:32.469Z,97088.02
2018-11-28T23:48:02.461Z,97083.63
2018-11-28T23:50:32.362Z,97080.05
2018-11-28T23:53:02.278Z,97074.27
2018-11-28T23:55:32.607Z,97086.16
2018-11-28T23:58:02.507Z,97078.27
